sensor_id;sensor_type;location;lat;lon;timestamp;temperature;humidity
19970;DHT22;10146;47.754;9.566;2022-08-03T00:01:39;19.50;99.90
19970;DHT22;10146;47.754;9.566;2022-08-03T00:04:05;19.40;99.90
19970;DHT22;10146;47.754;9.566;2022-08-03T00:06:31;19.50;99.90
19970;DHT22;10146;47.754;9.566;2022-08-03T00:08:57;19.40;99.90
19970;DHT22;10146;47.754;9.566;2022-08-03T00:11:23;19.30;99.90
19970;DHT22;10146;47.754;9.566;2022-08-03T00:13:49;19.40;99.90
19970;DHT22;10146;47.754;9.566;2022-08-03T00:16:15;19.50;99.90
19970;DHT22;10146;47.754;9.566;2022-08-03T00:18:40;19.40;99.90
19970;DHT22;10146;47.754;9.566;2022-08-03T00:21:06;19.40;99.90
19970;DHT22;10146;47.754;9.566;2022-08-03T00:23:33;19.40;99.90
19970;DHT22;10146;47.754;9.566;2022-08-03T00:25:59;19.30;99.90
19970;DHT22;10146;47.754;9.566;2022-08-03T00:28:24;19.10;99.90
19970;DHT22;10146;47.754;9.566;2022-08-03T00:30:50;19.00;99.90
19970;DHT22;10146;47.754;9.566;2022-08-03T00:33:16;19.00;99.90
19970;DHT22;10146;47.754;9.566;2022-08-03T00:35:41;19.10;99.90
19970;DHT22;10146;47.754;9.566;2022-08-03T00:38:07;19.10;99.90
19970;DHT22;10146;47.754;9.566;2022-08-03T00:40:33;19.10;99.90
19970;DHT22;10146;47.754;9.566;2022-08-03T00:43:01;19.10;99.90
19970;DHT22;10146;47.754;9.566;2022-08-03T00:45:29;19.00;99.90
19970;DHT22;10146;47.754;9.566;2022-08-03T00:47:56;19.00;99.90
19970;DHT22;10146;47.754;9.566;2022-08-03T00:50:23;19.00;99.90
19970;DHT22;10146;47.754;9.566;2022-08-03T00:52:52;19.00;99.90
19970;DHT22;10146;47.754;9.566;2022-08-03T00:55:18;19.00;99.90
19970;DHT22;10146;47.754;9.566;2022-08-03T00:57:44;19.00;99.90
19970;DHT22;10146;47.754;9.566;2022-08-03T01:00:14;18.90;99.90
19970;DHT22;10146;47.754;9.566;2022-08-03T01:02:40;19.00;99.90
19970;DHT22;10146;47.754;9.566;2022-08-03T01:05:07;18.90;99.90
19970;DHT22;10146;47.754;9.566;2022-08-03T01:18:40;18.90;99.90
19970;DHT22;10146;47.754;9.566;2022-08-03T01:21:16;18.90;99.90
19970;DHT22;10146;47.754;9.566;2022-08-03T01:26:50;18.70;99.90
19970;DHT22;10146;47.754;9.566;2022-08-03T01:32:09;18.80;99.90
19970;DHT22;10146;47.754;9.566;2022-08-03T01:34:54;18.90;99.90
19970;DHT22;10146;47.754;9.566;2022-08-03T01:37:38;18.90;99.90
19970;DHT22;10146;47.754;9.566;2022-08-03T01:40:05;18.80;99.90
19970;DHT22;10146;47.754;9.566;2022-08-03T01:42:33;18.80;99.90
19970;DHT22;10146;47.754;9.566;2022-08-03T01:45:01;18.70;99.90
19970;DHT22;10146;47.754;9.566;2022-08-03T01:47:27;18.70;99.90
19970;DHT22;10146;47.754;9.566;2022-08-03T01:49:55;18.70;99.90
19970;DHT22;10146;47.754;9.566;2022-08-03T01:52:22;18.70;99.90
19970;DHT22;10146;47.754;9.566;2022-08-03T01:54:50;18.60;99.90
19970;DHT22;10146;47.754;9.566;2022-08-03T01:57:18;18.60;99.90
19970;DHT22;10146;47.754;9.566;2022-08-03T01:59:46;18.50;99.90
19970;DHT22;10146;47.754;9.566;2022-08-03T02:02:15;18.50;99.90
19970;DHT22;10146;47.754;9.566;2022-08-03T02:04:42;18.60;99.90
19970;DHT22;10146;47.754;9.566;2022-08-03T02:07:09;18.60;99.90
19970;DHT22;10146;47.754;9.566;2022-08-03T02:09:37;18.60;99.90
19970;DHT22;10146;47.754;9.566;2022-08-03T02:12:08;18.60;99.90
19970;DHT22;10146;47.754;9.566;2022-08-03T02:14:36;18.60;99.90
19970;DHT22;10146;47.754;9.566;2022-08-03T02:17:02;18.50;99.90
19970;DHT22;10146;47.754;9.566;2022-08-03T02:19:29;18.60;99.90
19970;DHT22;10146;47.754;9.566;2022-08-03T02:21:57;18.60;99.90
19970;DHT22;10146;47.754;9.566;2022-08-03T02:24:23;18.40;99.90
19970;DHT22;10146;47.754;9.566;2022-08-03T02:26:50;18.40;99.90
19970;DHT22;10146;47.754;9.566;2022-08-03T02:29:23;18.40;99.90
19970;DHT22;10146;47.754;9.566;2022-08-03T02:31:50;18.30;99.90
19970;DHT22;10146;47.754;9.566;2022-08-03T02:34:17;18.20;99.90
19970;DHT22;10146;47.754;9.566;2022-08-03T02:36:48;18.20;99.90
19970;DHT22;10146;47.754;9.566;2022-08-03T02:39:16;18.20;99.90
19970;DHT22;10146;47.754;9.566;2022-08-03T02:41:50;18.10;99.90
19970;DHT22;10146;47.754;9.566;2022-08-03T02:44:23;18.10;99.90
19970;DHT22;10146;47.754;9.566;2022-08-03T02:46:55;18.20;99.90
19970;DHT22;10146;47.754;9.566;2022-08-03T02:49:22;18.10;99.90
19970;DHT22;10146;47.754;9.566;2022-08-03T02:51:51;18.10;99.90
19970;DHT22;10146;47.754;9.566;2022-08-03T02:54:18;18.10;99.90
19970;DHT22;10146;47.754;9.566;2022-08-03T02:56:45;18.20;99.90
19970;DHT22;10146;47.754;9.566;2022-08-03T02:59:13;18.10;99.90
19970;DHT22;10146;47.754;9.566;2022-08-03T03:01:39;18.10;99.90
19970;DHT22;10146;47.754;9.566;2022-08-03T03:04:06;18.00;99.90
19970;DHT22;10146;47.754;9.566;2022-08-03T03:06:33;18.00;99.90
19970;DHT22;10146;47.754;9.566;2022-08-03T03:09:00;18.00;99.90
19970;DHT22;10146;47.754;9.566;2022-08-03T03:11:26;18.00;99.90
19970;DHT22;10146;47.754;9.566;2022-08-03T03:13:56;17.90;99.90
19970;DHT22;10146;47.754;9.566;2022-08-03T03:16:22;17.90;99.90
19970;DHT22;10146;47.754;9.566;2022-08-03T03:18:50;17.90;99.90
19970;DHT22;10146;47.754;9.566;2022-08-03T03:21:18;17.90;99.90
19970;DHT22;10146;47.754;9.566;2022-08-03T03:23:45;17.80;99.90
19970;DHT22;10146;47.754;9.566;2022-08-03T03:26:13;17.80;99.90
19970;DHT22;10146;47.754;9.566;2022-08-03T03:28:39;17.80;99.90
19970;DHT22;10146;47.754;9.566;2022-08-03T03:31:06;17.80;99.90
19970;DHT22;10146;47.754;9.566;2022-08-03T03:33:33;17.70;99.90
19970;DHT22;10146;47.754;9.566;2022-08-03T03:35:59;17.70;99.90
19970;DHT22;10146;47.754;9.566;2022-08-03T03:38:25;17.70;99.90
19970;DHT22;10146;47.754;9.566;2022-08-03T03:40:50;17.70;99.90
19970;DHT22;10146;47.754;9.566;2022-08-03T03:43:16;17.80;99.90
19970;DHT22;10146;47.754;9.566;2022-08-03T03:45:46;17.70;99.90
19970;DHT22;10146;47.754;9.566;2022-08-03T03:48:12;17.80;99.90
19970;DHT22;10146;47.754;9.566;2022-08-03T03:50:38;17.70;99.90
19970;DHT22;10146;47.754;9.566;2022-08-03T03:53:12;17.70;99.90
19970;DHT22;10146;47.754;9.566;2022-08-03T03:55:38;17.70;99.90
19970;DHT22;10146;47.754;9.566;2022-08-03T03:58:05;17.60;99.90
19970;DHT22;10146;47.754;9.566;2022-08-03T04:00:31;17.70;99.90
19970;DHT22;10146;47.754;9.566;2022-08-03T04:02:57;17.60;99.90
19970;DHT22;10146;47.754;9.566;2022-08-03T04:05:23;17.50;99.90
19970;DHT22;10146;47.754;9.566;2022-08-03T04:08:15;17.50;99.90
19970;DHT22;10146;47.754;9.566;2022-08-03T04:11:21;17.50;99.90
19970;DHT22;10146;47.754;9.566;2022-08-03T04:14:10;17.40;99.90
19970;DHT22;10146;47.754;9.566;2022-08-03T04:16:38;17.30;99.90
19970;DHT22;10146;47.754;9.566;2022-08-03T04:19:08;17.30;99.90
19970;DHT22;10146;47.754;9.566;2022-08-03T04:21:38;17.40;99.90
19970;DHT22;10146;47.754;9.566;2022-08-03T04:24:08;17.40;99.90
19970;DHT22;10146;47.754;9.566;2022-08-03T04:26:36;17.40;99.90
19970;DHT22;10146;47.754;9.566;2022-08-03T04:29:05;17.50;99.90
19970;DHT22;10146;47.754;9.566;2022-08-03T04:31:31;17.60;99.90
19970;DHT22;10146;47.754;9.566;2022-08-03T04:33:57;17.70;99.90
19970;DHT22;10146;47.754;9.566;2022-08-03T04:36:25;17.70;99.90
19970;DHT22;10146;47.754;9.566;2022-08-03T04:39:17;17.70;99.90
19970;DHT22;10146;47.754;9.566;2022-08-03T04:41:44;17.70;99.90
19970;DHT22;10146;47.754;9.566;2022-08-03T04:44:12;17.70;99.90
19970;DHT22;10146;47.754;9.566;2022-08-03T04:46:38;17.60;99.90
19970;DHT22;10146;47.754;9.566;2022-08-03T04:49:05;17.60;99.90
19970;DHT22;10146;47.754;9.566;2022-08-03T04:51:32;17.70;99.90
19970;DHT22;10146;47.754;9.566;2022-08-03T04:54:03;17.70;99.90
19970;DHT22;10146;47.754;9.566;2022-08-03T04:56:28;17.80;99.90
19970;DHT22;10146;47.754;9.566;2022-08-03T04:58:54;17.80;99.90
19970;DHT22;10146;47.754;9.566;2022-08-03T05:01:20;17.90;99.90
19970;DHT22;10146;47.754;9.566;2022-08-03T05:03:47;18.00;99.90
19970;DHT22;10146;47.754;9.566;2022-08-03T05:06:12;18.00;99.90
19970;DHT22;10146;47.754;9.566;2022-08-03T05:08:38;18.10;99.90
19970;DHT22;10146;47.754;9.566;2022-08-03T05:11:04;18.10;99.90
19970;DHT22;10146;47.754;9.566;2022-08-03T05:13:30;18.10;99.90
19970;DHT22;10146;47.754;9.566;2022-08-03T05:15:55;18.20;99.90
19970;DHT22;10146;47.754;9.566;2022-08-03T05:18:21;18.30;99.90
19970;DHT22;10146;47.754;9.566;2022-08-03T05:20:47;18.30;99.90
19970;DHT22;10146;47.754;9.566;2022-08-03T05:23:13;18.30;99.90
19970;DHT22;10146;47.754;9.566;2022-08-03T05:25:38;18.40;99.90
19970;DHT22;10146;47.754;9.566;2022-08-03T05:28:04;18.50;99.90
19970;DHT22;10146;47.754;9.566;2022-08-03T05:30:30;18.60;99.90
19970;DHT22;10146;47.754;9.566;2022-08-03T05:32:55;18.70;99.90
19970;DHT22;10146;47.754;9.566;2022-08-03T05:35:21;18.80;99.90
19970;DHT22;10146;47.754;9.566;2022-08-03T05:37:49;18.80;99.90
19970;DHT22;10146;47.754;9.566;2022-08-03T05:40:15;18.80;99.90
19970;DHT22;10146;47.754;9.566;2022-08-03T05:42:40;19.00;99.90
19970;DHT22;10146;47.754;9.566;2022-08-03T05:45:06;19.00;99.90
19970;DHT22;10146;47.754;9.566;2022-08-03T05:47:45;19.10;99.90
19970;DHT22;10146;47.754;9.566;2022-08-03T05:50:12;19.10;99.90
19970;DHT22;10146;47.754;9.566;2022-08-03T05:52:39;19.30;99.90
19970;DHT22;10146;47.754;9.566;2022-08-03T05:55:08;19.30;99.90
19970;DHT22;10146;47.754;9.566;2022-08-03T05:57:34;19.50;99.90
19970;DHT22;10146;47.754;9.566;2022-08-03T06:00:05;19.50;99.90
19970;DHT22;10146;47.754;9.566;2022-08-03T06:02:31;19.60;99.90
19970;DHT22;10146;47.754;9.566;2022-08-03T06:04:57;19.60;99.90
19970;DHT22;10146;47.754;9.566;2022-08-03T06:07:22;19.60;99.90
19970;DHT22;10146;47.754;9.566;2022-08-03T06:09:48;19.70;99.90
19970;DHT22;10146;47.754;9.566;2022-08-03T06:12:14;19.90;99.90
19970;DHT22;10146;47.754;9.566;2022-08-03T06:14:40;20.00;99.90
19970;DHT22;10146;47.754;9.566;2022-08-03T06:17:06;20.10;99.90
19970;DHT22;10146;47.754;9.566;2022-08-03T06:19:31;20.10;99.90
19970;DHT22;10146;47.754;9.566;2022-08-03T06:21:57;20.30;99.90
19970;DHT22;10146;47.754;9.566;2022-08-03T06:24:22;20.40;99.90
19970;DHT22;10146;47.754;9.566;2022-08-03T06:26:48;20.50;99.90
19970;DHT22;10146;47.754;9.566;2022-08-03T06:29:14;20.60;99.90
19970;DHT22;10146;47.754;9.566;2022-08-03T06:31:39;20.70;99.90
19970;DHT22;10146;47.754;9.566;2022-08-03T06:34:05;20.70;99.90
19970;DHT22;10146;47.754;9.566;2022-08-03T06:36:31;20.80;99.90
19970;DHT22;10146;47.754;9.566;2022-08-03T06:38:58;20.90;99.90
19970;DHT22;10146;47.754;9.566;2022-08-03T06:41:24;21.00;99.90
19970;DHT22;10146;47.754;9.566;2022-08-03T06:43:50;21.10;99.90
19970;DHT22;10146;47.754;9.566;2022-08-03T06:46:15;21.30;99.90
19970;DHT22;10146;47.754;9.566;2022-08-03T06:48:41;21.30;99.90
19970;DHT22;10146;47.754;9.566;2022-08-03T06:51:07;21.30;99.90
19970;DHT22;10146;47.754;9.566;2022-08-03T06:53:33;21.40;99.90
19970;DHT22;10146;47.754;9.566;2022-08-03T06:55:58;21.40;99.90
19970;DHT22;10146;47.754;9.566;2022-08-03T06:58:24;21.50;99.90
19970;DHT22;10146;47.754;9.566;2022-08-03T07:00:49;21.60;99.90
19970;DHT22;10146;47.754;9.566;2022-08-03T07:03:16;21.70;99.90
19970;DHT22;10146;47.754;9.566;2022-08-03T07:05:42;21.70;99.90
19970;DHT22;10146;47.754;9.566;2022-08-03T07:08:08;21.80;99.90
19970;DHT22;10146;47.754;9.566;2022-08-03T07:10:34;21.80;99.90
19970;DHT22;10146;47.754;9.566;2022-08-03T07:13:00;21.90;99.90
19970;DHT22;10146;47.754;9.566;2022-08-03T07:15:25;22.00;99.90
19970;DHT22;10146;47.754;9.566;2022-08-03T07:17:51;22.00;99.90
19970;DHT22;10146;47.754;9.566;2022-08-03T07:20:17;22.10;99.90
19970;DHT22;10146;47.754;9.566;2022-08-03T07:22:43;22.10;99.90
19970;DHT22;10146;47.754;9.566;2022-08-03T07:25:09;22.20;99.90
19970;DHT22;10146;47.754;9.566;2022-08-03T07:27:35;22.30;99.90
19970;DHT22;10146;47.754;9.566;2022-08-03T07:30:04;22.30;99.90
19970;DHT22;10146;47.754;9.566;2022-08-03T07:32:30;22.40;99.90
19970;DHT22;10146;47.754;9.566;2022-08-03T07:34:56;22.50;99.90
19970;DHT22;10146;47.754;9.566;2022-08-03T07:37:22;22.60;99.90
19970;DHT22;10146;47.754;9.566;2022-08-03T07:39:47;22.60;99.90
19970;DHT22;10146;47.754;9.566;2022-08-03T07:42:13;22.70;99.90
19970;DHT22;10146;47.754;9.566;2022-08-03T07:44:39;22.80;99.90
19970;DHT22;10146;47.754;9.566;2022-08-03T07:47:05;22.90;99.90
19970;DHT22;10146;47.754;9.566;2022-08-03T07:49:31;22.90;99.90
19970;DHT22;10146;47.754;9.566;2022-08-03T07:51:56;23.00;99.90
19970;DHT22;10146;47.754;9.566;2022-08-03T07:54:41;23.10;99.90
19970;DHT22;10146;47.754;9.566;2022-08-03T07:57:06;23.30;99.90
19970;DHT22;10146;47.754;9.566;2022-08-03T07:59:32;23.30;99.90
19970;DHT22;10146;47.754;9.566;2022-08-03T08:01:59;23.40;99.90
19970;DHT22;10146;47.754;9.566;2022-08-03T08:04:25;23.40;99.90
19970;DHT22;10146;47.754;9.566;2022-08-03T08:06:51;23.50;99.90
19970;DHT22;10146;47.754;9.566;2022-08-03T08:09:16;23.60;99.90
19970;DHT22;10146;47.754;9.566;2022-08-03T08:11:42;23.70;99.90
19970;DHT22;10146;47.754;9.566;2022-08-03T08:14:07;23.80;99.90
19970;DHT22;10146;47.754;9.566;2022-08-03T08:16:34;23.90;99.90
19970;DHT22;10146;47.754;9.566;2022-08-03T08:18:59;23.90;99.90
19970;DHT22;10146;47.754;9.566;2022-08-03T08:21:26;24.00;99.90
19970;DHT22;10146;47.754;9.566;2022-08-03T08:23:52;24.10;99.90
19970;DHT22;10146;47.754;9.566;2022-08-03T08:26:17;24.10;99.90
19970;DHT22;10146;47.754;9.566;2022-08-03T08:28:43;24.20;99.90
19970;DHT22;10146;47.754;9.566;2022-08-03T08:31:09;24.30;99.90
19970;DHT22;10146;47.754;9.566;2022-08-03T08:33:34;24.40;99.90
19970;DHT22;10146;47.754;9.566;2022-08-03T08:36:00;24.50;99.90
19970;DHT22;10146;47.754;9.566;2022-08-03T08:38:26;24.70;99.90
19970;DHT22;10146;47.754;9.566;2022-08-03T08:40:54;24.80;99.90
19970;DHT22;10146;47.754;9.566;2022-08-03T08:43:20;24.90;99.90
19970;DHT22;10146;47.754;9.566;2022-08-03T08:45:48;25.00;99.90
19970;DHT22;10146;47.754;9.566;2022-08-03T08:48:18;25.00;99.90
19970;DHT22;10146;47.754;9.566;2022-08-03T08:50:47;25.10;99.90
19970;DHT22;10146;47.754;9.566;2022-08-03T08:53:13;25.20;99.90
19970;DHT22;10146;47.754;9.566;2022-08-03T08:55:39;25.30;99.90
19970;DHT22;10146;47.754;9.566;2022-08-03T08:58:05;25.40;99.90
19970;DHT22;10146;47.754;9.566;2022-08-03T09:00:32;25.40;99.90
19970;DHT22;10146;47.754;9.566;2022-08-03T09:02:59;25.50;99.90
19970;DHT22;10146;47.754;9.566;2022-08-03T09:05:25;25.60;99.90
19970;DHT22;10146;47.754;9.566;2022-08-03T09:07:51;25.70;99.90
19970;DHT22;10146;47.754;9.566;2022-08-03T09:10:18;25.80;99.90
19970;DHT22;10146;47.754;9.566;2022-08-03T09:12:47;25.80;99.90
19970;DHT22;10146;47.754;9.566;2022-08-03T09:15:27;25.90;99.90
19970;DHT22;10146;47.754;9.566;2022-08-03T09:17:57;25.90;99.90
19970;DHT22;10146;47.754;9.566;2022-08-03T09:20:25;26.00;99.90
19970;DHT22;10146;47.754;9.566;2022-08-03T09:22:52;26.00;99.90
19970;DHT22;10146;47.754;9.566;2022-08-03T09:25:19;26.10;99.90
19970;DHT22;10146;47.754;9.566;2022-08-03T09:27:50;26.30;99.90
19970;DHT22;10146;47.754;9.566;2022-08-03T09:30:17;26.40;99.90
19970;DHT22;10146;47.754;9.566;2022-08-03T09:32:43;26.50;99.90
19970;DHT22;10146;47.754;9.566;2022-08-03T09:35:11;26.50;99.90
19970;DHT22;10146;47.754;9.566;2022-08-03T09:37:38;26.50;99.90
19970;DHT22;10146;47.754;9.566;2022-08-03T09:40:04;26.50;99.70
19970;DHT22;10146;47.754;9.566;2022-08-03T09:42:30;26.60;99.20
19970;DHT22;10146;47.754;9.566;2022-08-03T09:44:56;26.70;99.00
19970;DHT22;10146;47.754;9.566;2022-08-03T09:47:30;26.80;99.60
19970;DHT22;10146;47.754;9.566;2022-08-03T09:49:58;27.00;99.90
19970;DHT22;10146;47.754;9.566;2022-08-03T09:52:36;27.20;98.40
19970;DHT22;10146;47.754;9.566;2022-08-03T09:55:08;27.20;98.90
19970;DHT22;10146;47.754;9.566;2022-08-03T09:57:34;27.30;97.70
19970;DHT22;10146;47.754;9.566;2022-08-03T10:00:07;27.40;97.70
19970;DHT22;10146;47.754;9.566;2022-08-03T10:02:35;27.50;96.50
19970;DHT22;10146;47.754;9.566;2022-08-03T10:05:03;27.70;96.30
19970;DHT22;10146;47.754;9.566;2022-08-03T10:07:29;27.70;95.50
19970;DHT22;10146;47.754;9.566;2022-08-03T10:10:00;27.80;95.60
19970;DHT22;10146;47.754;9.566;2022-08-03T10:12:26;27.90;94.90
19970;DHT22;10146;47.754;9.566;2022-08-03T10:14:53;27.90;93.90
19970;DHT22;10146;47.754;9.566;2022-08-03T10:17:20;27.90;94.50
19970;DHT22;10146;47.754;9.566;2022-08-03T10:19:47;28.00;93.40
19970;DHT22;10146;47.754;9.566;2022-08-03T10:22:24;27.90;92.10
19970;DHT22;10146;47.754;9.566;2022-08-03T10:25:10;27.90;90.60
19970;DHT22;10146;47.754;9.566;2022-08-03T10:27:38;27.90;90.20
19970;DHT22;10146;47.754;9.566;2022-08-03T10:30:09;28.00;90.50
19970;DHT22;10146;47.754;9.566;2022-08-03T10:35:20;28.30;91.30
19970;DHT22;10146;47.754;9.566;2022-08-03T10:38:11;28.40;90.20
19970;DHT22;10146;47.754;9.566;2022-08-03T10:40:41;28.40;87.90
19970;DHT22;10146;47.754;9.566;2022-08-03T10:43:19;28.60;88.10
19970;DHT22;10146;47.754;9.566;2022-08-03T10:45:46;28.60;88.30
19970;DHT22;10146;47.754;9.566;2022-08-03T10:48:12;28.60;90.10
19970;DHT22;10146;47.754;9.566;2022-08-03T10:50:38;28.70;87.40
19970;DHT22;10146;47.754;9.566;2022-08-03T10:53:06;28.90;83.90
19970;DHT22;10146;47.754;9.566;2022-08-03T11:01:08;29.10;82.40
19970;DHT22;10146;47.754;9.566;2022-08-03T11:06:21;29.60;78.90
19970;DHT22;10146;47.754;9.566;2022-08-03T11:08:48;29.70;78.20
19970;DHT22;10146;47.754;9.566;2022-08-03T11:16:28;29.80;80.10
19970;DHT22;10146;47.754;9.566;2022-08-03T11:18:58;29.70;78.10
19970;DHT22;10146;47.754;9.566;2022-08-03T11:27:17;29.70;67.40
19970;DHT22;10146;47.754;9.566;2022-08-03T11:35:33;29.90;68.60
19970;DHT22;10146;47.754;9.566;2022-08-03T11:38:09;30.00;65.90
19970;DHT22;10146;47.754;9.566;2022-08-03T11:43:01;30.30;62.20
19970;DHT22;10146;47.754;9.566;2022-08-03T11:45:27;30.30;61.20
19970;DHT22;10146;47.754;9.566;2022-08-03T11:47:56;30.30;60.50
19970;DHT22;10146;47.754;9.566;2022-08-03T11:50:23;30.50;58.00
19970;DHT22;10146;47.754;9.566;2022-08-03T11:52:49;30.70;54.80
19970;DHT22;10146;47.754;9.566;2022-08-03T11:55:17;30.80;58.00
19970;DHT22;10146;47.754;9.566;2022-08-03T11:57:45;30.90;57.40
19970;DHT22;10146;47.754;9.566;2022-08-03T12:00:31;31.10;58.00
19970;DHT22;10146;47.754;9.566;2022-08-03T12:03:08;31.20;57.00
19970;DHT22;10146;47.754;9.566;2022-08-03T12:08:07;31.40;59.10
19970;DHT22;10146;47.754;9.566;2022-08-03T12:10:33;31.40;56.90
19970;DHT22;10146;47.754;9.566;2022-08-03T12:13:00;31.40;57.60
19970;DHT22;10146;47.754;9.566;2022-08-03T12:15:28;31.50;59.50
19970;DHT22;10146;47.754;9.566;2022-08-03T12:17:56;31.60;58.90
19970;DHT22;10146;47.754;9.566;2022-08-03T12:20:27;31.70;58.80
19970;DHT22;10146;47.754;9.566;2022-08-03T12:22:53;31.70;61.00
19970;DHT22;10146;47.754;9.566;2022-08-03T12:25:21;31.80;60.40
19970;DHT22;10146;47.754;9.566;2022-08-03T12:27:48;31.80;58.90
19970;DHT22;10146;47.754;9.566;2022-08-03T12:30:14;31.70;57.10
19970;DHT22;10146;47.754;9.566;2022-08-03T12:32:42;31.80;58.00
19970;DHT22;10146;47.754;9.566;2022-08-03T12:35:08;31.90;54.30
19970;DHT22;10146;47.754;9.566;2022-08-03T12:37:35;31.90;56.30
19970;DHT22;10146;47.754;9.566;2022-08-03T12:40:02;32.00;57.50
19970;DHT22;10146;47.754;9.566;2022-08-03T12:42:31;32.20;56.90
19970;DHT22;10146;47.754;9.566;2022-08-03T12:44:57;32.30;54.20
19970;DHT22;10146;47.754;9.566;2022-08-03T12:47:23;32.50;55.10
19970;DHT22;10146;47.754;9.566;2022-08-03T12:49:50;32.90;53.90
19970;DHT22;10146;47.754;9.566;2022-08-03T12:52:18;32.90;52.20
19970;DHT22;10146;47.754;9.566;2022-08-03T12:54:58;33.10;51.50
19970;DHT22;10146;47.754;9.566;2022-08-03T12:57:24;33.10;52.30
19970;DHT22;10146;47.754;9.566;2022-08-03T12:59:50;33.00;53.00
19970;DHT22;10146;47.754;9.566;2022-08-03T13:02:24;33.00;55.20
19970;DHT22;10146;47.754;9.566;2022-08-03T13:04:51;33.00;55.10
19970;DHT22;10146;47.754;9.566;2022-08-03T13:07:17;33.00;54.10
19970;DHT22;10146;47.754;9.566;2022-08-03T13:09:54;33.10;52.80
19970;DHT22;10146;47.754;9.566;2022-08-03T13:12:23;33.10;52.30
19970;DHT22;10146;47.754;9.566;2022-08-03T13:14:54;33.20;52.30
19970;DHT22;10146;47.754;9.566;2022-08-03T13:17:20;33.40;53.20
19970;DHT22;10146;47.754;9.566;2022-08-03T13:19:46;33.40;53.30
19970;DHT22;10146;47.754;9.566;2022-08-03T13:22:17;33.50;51.40
19970;DHT22;10146;47.754;9.566;2022-08-03T13:24:45;33.40;51.60
19970;DHT22;10146;47.754;9.566;2022-08-03T13:27:11;33.60;52.20
19970;DHT22;10146;47.754;9.566;2022-08-03T13:29:37;33.60;52.60
19970;DHT22;10146;47.754;9.566;2022-08-03T13:32:03;33.60;50.90
19970;DHT22;10146;47.754;9.566;2022-08-03T13:34:30;33.70;51.00
19970;DHT22;10146;47.754;9.566;2022-08-03T13:36:56;33.70;50.20
19970;DHT22;10146;47.754;9.566;2022-08-03T13:39:21;33.70;53.10
19970;DHT22;10146;47.754;9.566;2022-08-03T13:41:48;33.80;52.30
19970;DHT22;10146;47.754;9.566;2022-08-03T13:44:13;33.80;53.60
19970;DHT22;10146;47.754;9.566;2022-08-03T13:46:39;34.00;51.50
19970;DHT22;10146;47.754;9.566;2022-08-03T13:49:06;34.20;50.50
19970;DHT22;10146;47.754;9.566;2022-08-03T13:51:32;34.20;49.90
19970;DHT22;10146;47.754;9.566;2022-08-03T13:53:57;34.30;50.70
19970;DHT22;10146;47.754;9.566;2022-08-03T13:56:25;34.30;50.70
19970;DHT22;10146;47.754;9.566;2022-08-03T13:58:51;34.20;49.00
19970;DHT22;10146;47.754;9.566;2022-08-03T14:01:17;34.10;49.70
19970;DHT22;10146;47.754;9.566;2022-08-03T14:03:42;34.20;50.50
19970;DHT22;10146;47.754;9.566;2022-08-03T14:06:08;34.30;49.20
19970;DHT22;10146;47.754;9.566;2022-08-03T14:08:34;34.40;49.10
19970;DHT22;10146;47.754;9.566;2022-08-03T14:11:00;34.40;48.90
19970;DHT22;10146;47.754;9.566;2022-08-03T14:13:25;34.50;48.10
19970;DHT22;10146;47.754;9.566;2022-08-03T14:15:51;34.50;49.60
19970;DHT22;10146;47.754;9.566;2022-08-03T14:18:18;34.60;49.60
19970;DHT22;10146;47.754;9.566;2022-08-03T14:20:44;34.60;50.00
19970;DHT22;10146;47.754;9.566;2022-08-03T14:23:10;34.80;48.80
19970;DHT22;10146;47.754;9.566;2022-08-03T14:25:35;35.00;50.00
19970;DHT22;10146;47.754;9.566;2022-08-03T14:28:01;35.10;50.00
19970;DHT22;10146;47.754;9.566;2022-08-03T14:30:27;35.10;48.00
19970;DHT22;10146;47.754;9.566;2022-08-03T14:32:52;35.10;47.70
19970;DHT22;10146;47.754;9.566;2022-08-03T14:35:18;35.20;48.20
19970;DHT22;10146;47.754;9.566;2022-08-03T14:37:43;35.30;48.50
19970;DHT22;10146;47.754;9.566;2022-08-03T14:40:09;35.00;49.00
19970;DHT22;10146;47.754;9.566;2022-08-03T14:42:35;35.00;47.20
19970;DHT22;10146;47.754;9.566;2022-08-03T14:45:00;35.10;47.80
19970;DHT22;10146;47.754;9.566;2022-08-03T14:47:26;35.30;47.10
19970;DHT22;10146;47.754;9.566;2022-08-03T14:49:52;35.40;46.90
19970;DHT22;10146;47.754;9.566;2022-08-03T14:52:17;35.70;47.10
19970;DHT22;10146;47.754;9.566;2022-08-03T14:54:44;35.60;44.60
19970;DHT22;10146;47.754;9.566;2022-08-03T14:57:09;35.70;44.70
19970;DHT22;10146;47.754;9.566;2022-08-03T14:59:35;35.90;45.50
19970;DHT22;10146;47.754;9.566;2022-08-03T15:02:01;35.80;46.40
19970;DHT22;10146;47.754;9.566;2022-08-03T15:04:26;35.70;45.70
19970;DHT22;10146;47.754;9.566;2022-08-03T15:06:53;35.60;44.30
19970;DHT22;10146;47.754;9.566;2022-08-03T15:09:19;35.60;45.10
19970;DHT22;10146;47.754;9.566;2022-08-03T15:11:44;35.60;45.10
19970;DHT22;10146;47.754;9.566;2022-08-03T15:14:10;35.70;45.10
19970;DHT22;10146;47.754;9.566;2022-08-03T15:16:37;35.70;45.50
19970;DHT22;10146;47.754;9.566;2022-08-03T15:19:03;35.90;45.50
19970;DHT22;10146;47.754;9.566;2022-08-03T15:21:28;36.10;45.10
19970;DHT22;10146;47.754;9.566;2022-08-03T15:23:54;36.30;45.10
19970;DHT22;10146;47.754;9.566;2022-08-03T15:26:20;36.50;43.90
19970;DHT22;10146;47.754;9.566;2022-08-03T15:28:45;36.40;43.00
19970;DHT22;10146;47.754;9.566;2022-08-03T15:31:11;36.30;43.30
19970;DHT22;10146;47.754;9.566;2022-08-03T15:33:36;36.40;43.40
19970;DHT22;10146;47.754;9.566;2022-08-03T15:36:03;36.50;41.70
19970;DHT22;10146;47.754;9.566;2022-08-03T15:38:29;36.80;41.80
19970;DHT22;10146;47.754;9.566;2022-08-03T15:40:55;36.90;42.10
19970;DHT22;10146;47.754;9.566;2022-08-03T15:43:21;37.00;43.50
19970;DHT22;10146;47.754;9.566;2022-08-03T15:45:47;37.00;41.80
19970;DHT22;10146;47.754;9.566;2022-08-03T15:48:13;37.20;42.90
19970;DHT22;10146;47.754;9.566;2022-08-03T15:50:39;37.30;41.60
19970;DHT22;10146;47.754;9.566;2022-08-03T15:53:04;36.90;42.10
19970;DHT22;10146;47.754;9.566;2022-08-03T15:55:30;36.90;41.80
19970;DHT22;10146;47.754;9.566;2022-08-03T15:57:56;36.90;41.90
19970;DHT22;10146;47.754;9.566;2022-08-03T16:00:22;36.90;41.90
19970;DHT22;10146;47.754;9.566;2022-08-03T16:02:48;36.90;43.40
19970;DHT22;10146;47.754;9.566;2022-08-03T16:05:13;36.90;42.10
19970;DHT22;10146;47.754;9.566;2022-08-03T16:07:39;36.90;41.80
19970;DHT22;10146;47.754;9.566;2022-08-03T16:10:12;36.90;42.00
19970;DHT22;10146;47.754;9.566;2022-08-03T16:12:38;36.70;43.80
19970;DHT22;10146;47.754;9.566;2022-08-03T16:15:04;36.60;42.80
19970;DHT22;10146;47.754;9.566;2022-08-03T16:17:30;36.60;42.30
19970;DHT22;10146;47.754;9.566;2022-08-03T16:19:56;36.40;42.90
19970;DHT22;10146;47.754;9.566;2022-08-03T16:22:23;36.20;42.90